sensor_id;sensor_type;location;lat;lon;timestamp;P1;durP1;ratioP1;P2;durP2;ratioP2
12906;SDS011;6521;50.498;8.474;2022-12-11T00:01:46;27.67;;;16.77;;
12906;SDS011;6521;50.498;8.474;2022-12-11T00:04:17;28.37;;;16.87;;
12906;SDS011;6521;50.498;8.474;2022-12-11T00:06:47;30.67;;;18.23;;
12906;SDS011;6521;50.498;8.474;2022-12-11T00:09:19;27.63;;;16.73;;
12906;SDS011;6521;50.498;8.474;2022-12-11T00:11:50;33.10;;;18.10;;
12906;SDS011;6521;50.498;8.474;2022-12-11T00:14:21;31.07;;;18.47;;
12906;SDS011;6521;50.498;8.474;2022-12-11T00:16:52;31.50;;;17.13;;
12906;SDS011;6521;50.498;8.474;2022-12-11T00:19:22;31.57;;;18.40;;
12906;SDS011;6521;50.498;8.474;2022-12-11T00:21:53;27.53;;;17.30;;
12906;SDS011;6521;50.498;8.474;2022-12-11T00:24:24;30.23;;;19.30;;
12906;SDS011;6521;50.498;8.474;2022-12-11T00:26:54;31.27;;;17.50;;
12906;SDS011;6521;50.498;8.474;2022-12-11T00:29:25;28.50;;;17.10;;
12906;SDS011;6521;50.498;8.474;2022-12-11T00:31:56;29.07;;;18.60;;
12906;SDS011;6521;50.498;8.474;2022-12-11T00:34:27;29.97;;;17.57;;
12906;SDS011;6521;50.498;8.474;2022-12-11T00:36:58;30.03;;;17.20;;
12906;SDS011;6521;50.498;8.474;2022-12-11T00:39:28;31.00;;;17.17;;
12906;SDS011;6521;50.498;8.474;2022-12-11T00:41:59;33.00;;;18.40;;
12906;SDS011;6521;50.498;8.474;2022-12-11T00:44:30;31.40;;;18.10;;
12906;SDS011;6521;50.498;8.474;2022-12-11T00:47:01;32.73;;;19.50;;
12906;SDS011;6521;50.498;8.474;2022-12-11T00:49:32;32.83;;;18.67;;
12906;SDS011;6521;50.498;8.474;2022-12-11T00:52:03;31.70;;;19.60;;
12906;SDS011;6521;50.498;8.474;2022-12-11T00:54:33;36.63;;;20.47;;
12906;SDS011;6521;50.498;8.474;2022-12-11T00:57:04;29.63;;;18.50;;
12906;SDS011;6521;50.498;8.474;2022-12-11T00:59:35;31.73;;;18.97;;
12906;SDS011;6521;50.498;8.474;2022-12-11T01:02:07;28.97;;;17.13;;
12906;SDS011;6521;50.498;8.474;2022-12-11T01:04:38;33.33;;;18.40;;
12906;SDS011;6521;50.498;8.474;2022-12-11T01:07:08;36.87;;;19.40;;
12906;SDS011;6521;50.498;8.474;2022-12-11T01:09:39;33.10;;;19.70;;
12906;SDS011;6521;50.498;8.474;2022-12-11T01:12:29;32.23;;;19.27;;
12906;SDS011;6521;50.498;8.474;2022-12-11T01:14:59;34.60;;;20.07;;
12906;SDS011;6521;50.498;8.474;2022-12-11T01:17:30;34.27;;;20.33;;
12906;SDS011;6521;50.498;8.474;2022-12-11T01:20:01;36.00;;;19.00;;
12906;SDS011;6521;50.498;8.474;2022-12-11T01:22:33;32.43;;;19.97;;
12906;SDS011;6521;50.498;8.474;2022-12-11T01:25:04;33.87;;;19.80;;
12906;SDS011;6521;50.498;8.474;2022-12-11T01:27:36;32.93;;;20.27;;
12906;SDS011;6521;50.498;8.474;2022-12-11T01:30:07;33.50;;;19.67;;
12906;SDS011;6521;50.498;8.474;2022-12-11T01:32:38;33.40;;;19.57;;
12906;SDS011;6521;50.498;8.474;2022-12-11T01:35:10;34.23;;;19.73;;
12906;SDS011;6521;50.498;8.474;2022-12-11T01:37:42;32.80;;;18.63;;
12906;SDS011;6521;50.498;8.474;2022-12-11T01:40:13;30.73;;;17.97;;
12906;SDS011;6521;50.498;8.474;2022-12-11T01:42:47;30.67;;;18.10;;
12906;SDS011;6521;50.498;8.474;2022-12-11T01:48:18;28.83;;;18.20;;
12906;SDS011;6521;50.498;8.474;2022-12-11T01:51:01;32.77;;;18.73;;
12906;SDS011;6521;50.498;8.474;2022-12-11T01:53:34;29.83;;;18.67;;
12906;SDS011;6521;50.498;8.474;2022-12-11T01:56:08;31.20;;;18.30;;
12906;SDS011;6521;50.498;8.474;2022-12-11T01:58:41;32.03;;;18.77;;
12906;SDS011;6521;50.498;8.474;2022-12-11T02:01:17;30.27;;;18.47;;
12906;SDS011;6521;50.498;8.474;2022-12-11T02:03:54;31.03;;;18.73;;
12906;SDS011;6521;50.498;8.474;2022-12-11T02:06:30;39.17;;;19.30;;
12906;SDS011;6521;50.498;8.474;2022-12-11T02:09:08;36.23;;;20.80;;
12906;SDS011;6521;50.498;8.474;2022-12-11T02:17:11;36.17;;;19.70;;
12906;SDS011;6521;50.498;8.474;2022-12-11T02:19:57;31.77;;;17.93;;
12906;SDS011;6521;50.498;8.474;2022-12-11T02:22:45;33.70;;;18.23;;
12906;SDS011;6521;50.498;8.474;2022-12-11T02:31:12;34.93;;;19.50;;
12906;SDS011;6521;50.498;8.474;2022-12-11T02:33:57;32.40;;;19.27;;
12906;SDS011;6521;50.498;8.474;2022-12-11T02:36:53;34.03;;;19.87;;
12906;SDS011;6521;50.498;8.474;2022-12-11T02:39:27;35.00;;;20.43;;
12906;SDS011;6521;50.498;8.474;2022-12-11T02:42:00;37.40;;;19.53;;
12906;SDS011;6521;50.498;8.474;2022-12-11T02:44:33;34.30;;;19.93;;
12906;SDS011;6521;50.498;8.474;2022-12-11T02:47:06;37.23;;;20.13;;
12906;SDS011;6521;50.498;8.474;2022-12-11T02:49:41;37.40;;;19.60;;
12906;SDS011;6521;50.498;8.474;2022-12-11T02:52:15;34.37;;;18.33;;
12906;SDS011;6521;50.498;8.474;2022-12-11T02:54:51;33.73;;;20.10;;
12906;SDS011;6521;50.498;8.474;2022-12-11T02:57:26;36.97;;;20.37;;
12906;SDS011;6521;50.498;8.474;2022-12-11T03:00:03;34.67;;;19.17;;
12906;SDS011;6521;50.498;8.474;2022-12-11T03:02:36;31.80;;;18.60;;
12906;SDS011;6521;50.498;8.474;2022-12-11T03:05:08;32.10;;;19.27;;
12906;SDS011;6521;50.498;8.474;2022-12-11T03:07:42;30.33;;;18.73;;
12906;SDS011;6521;50.498;8.474;2022-12-11T03:10:14;33.17;;;18.57;;
12906;SDS011;6521;50.498;8.474;2022-12-11T03:12:49;36.57;;;20.03;;
12906;SDS011;6521;50.498;8.474;2022-12-11T03:15:32;30.87;;;18.40;;
12906;SDS011;6521;50.498;8.474;2022-12-11T03:21:23;31.87;;;19.17;;
12906;SDS011;6521;50.498;8.474;2022-12-11T03:24:02;31.10;;;18.13;;
12906;SDS011;6521;50.498;8.474;2022-12-11T03:26:44;32.83;;;19.03;;
12906;SDS011;6521;50.498;8.474;2022-12-11T03:29:25;33.47;;;18.90;;
12906;SDS011;6521;50.498;8.474;2022-12-11T03:32:14;35.53;;;20.27;;
12906;SDS011;6521;50.498;8.474;2022-12-11T03:34:53;33.37;;;19.03;;
12906;SDS011;6521;50.498;8.474;2022-12-11T03:37:30;34.07;;;18.53;;
12906;SDS011;6521;50.498;8.474;2022-12-11T03:40:05;35.87;;;18.80;;
12906;SDS011;6521;50.498;8.474;2022-12-11T03:42:42;31.60;;;18.07;;
12906;SDS011;6521;50.498;8.474;2022-12-11T03:45:16;38.70;;;20.47;;
12906;SDS011;6521;50.498;8.474;2022-12-11T03:47:50;34.97;;;20.13;;
12906;SDS011;6521;50.498;8.474;2022-12-11T03:50:23;38.90;;;21.23;;
12906;SDS011;6521;50.498;8.474;2022-12-11T03:52:56;39.43;;;21.27;;
12906;SDS011;6521;50.498;8.474;2022-12-11T03:55:29;43.47;;;22.43;;
12906;SDS011;6521;50.498;8.474;2022-12-11T03:58:03;42.77;;;21.50;;
12906;SDS011;6521;50.498;8.474;2022-12-11T04:00:34;38.53;;;19.93;;
12906;SDS011;6521;50.498;8.474;2022-12-11T04:03:05;39.33;;;21.23;;
12906;SDS011;6521;50.498;8.474;2022-12-11T04:05:47;37.10;;;20.70;;
12906;SDS011;6521;50.498;8.474;2022-12-11T04:08:19;42.97;;;21.37;;
12906;SDS011;6521;50.498;8.474;2022-12-11T04:10:51;44.70;;;22.50;;
12906;SDS011;6521;50.498;8.474;2022-12-11T04:13:40;44.93;;;22.53;;
12906;SDS011;6521;50.498;8.474;2022-12-11T04:16:11;45.63;;;23.17;;
12906;SDS011;6521;50.498;8.474;2022-12-11T04:18:42;50.03;;;23.83;;
12906;SDS011;6521;50.498;8.474;2022-12-11T04:21:42;53.90;;;24.37;;
12906;SDS011;6521;50.498;8.474;2022-12-11T04:24:31;50.30;;;26.37;;
12906;SDS011;6521;50.498;8.474;2022-12-11T04:27:02;66.00;;;29.03;;
12906;SDS011;6521;50.498;8.474;2022-12-11T04:29:33;57.57;;;27.60;;
12906;SDS011;6521;50.498;8.474;2022-12-11T04:32:04;64.43;;;27.23;;
12906;SDS011;6521;50.498;8.474;2022-12-11T04:34:36;58.87;;;29.23;;
12906;SDS011;6521;50.498;8.474;2022-12-11T04:37:07;67.00;;;29.10;;
12906;SDS011;6521;50.498;8.474;2022-12-11T04:39:38;69.60;;;28.80;;
12906;SDS011;6521;50.498;8.474;2022-12-11T04:42:08;67.63;;;29.63;;
12906;SDS011;6521;50.498;8.474;2022-12-11T04:44:39;59.37;;;30.20;;
12906;SDS011;6521;50.498;8.474;2022-12-11T04:47:10;65.77;;;29.60;;
12906;SDS011;6521;50.498;8.474;2022-12-11T04:49:41;61.03;;;28.43;;
12906;SDS011;6521;50.498;8.474;2022-12-11T04:52:11;59.97;;;28.00;;
12906;SDS011;6521;50.498;8.474;2022-12-11T04:54:42;63.23;;;28.73;;
12906;SDS011;6521;50.498;8.474;2022-12-11T04:57:13;63.50;;;28.77;;
12906;SDS011;6521;50.498;8.474;2022-12-11T04:59:44;69.37;;;31.33;;
12906;SDS011;6521;50.498;8.474;2022-12-11T05:02:15;76.07;;;32.30;;
12906;SDS011;6521;50.498;8.474;2022-12-11T05:04:46;67.90;;;29.13;;
12906;SDS011;6521;50.498;8.474;2022-12-11T05:07:17;71.17;;;29.63;;
12906;SDS011;6521;50.498;8.474;2022-12-11T05:09:48;69.53;;;31.13;;
12906;SDS011;6521;50.498;8.474;2022-12-11T05:12:18;72.53;;;30.70;;
12906;SDS011;6521;50.498;8.474;2022-12-11T05:14:53;67.67;;;28.10;;
12906;SDS011;6521;50.498;8.474;2022-12-11T05:17:24;69.00;;;29.80;;
12906;SDS011;6521;50.498;8.474;2022-12-11T05:19:54;72.37;;;31.83;;
12906;SDS011;6521;50.498;8.474;2022-12-11T05:22:25;70.90;;;30.87;;
12906;SDS011;6521;50.498;8.474;2022-12-11T05:24:56;67.07;;;30.40;;
12906;SDS011;6521;50.498;8.474;2022-12-11T05:27:27;65.87;;;29.63;;
12906;SDS011;6521;50.498;8.474;2022-12-11T05:29:58;78.97;;;32.77;;
12906;SDS011;6521;50.498;8.474;2022-12-11T05:32:29;73.40;;;34.03;;
12906;SDS011;6521;50.498;8.474;2022-12-11T05:35:00;69.50;;;30.50;;
12906;SDS011;6521;50.498;8.474;2022-12-11T05:37:31;73.67;;;30.60;;
12906;SDS011;6521;50.498;8.474;2022-12-11T05:40:03;73.80;;;30.57;;
12906;SDS011;6521;50.498;8.474;2022-12-11T05:42:35;66.10;;;31.07;;
12906;SDS011;6521;50.498;8.474;2022-12-11T05:45:06;72.40;;;31.00;;
12906;SDS011;6521;50.498;8.474;2022-12-11T05:47:38;62.87;;;28.30;;
12906;SDS011;6521;50.498;8.474;2022-12-11T05:50:08;53.60;;;27.40;;
12906;SDS011;6521;50.498;8.474;2022-12-11T05:52:40;65.80;;;27.30;;
12906;SDS011;6521;50.498;8.474;2022-12-11T05:55:11;60.10;;;26.73;;
12906;SDS011;6521;50.498;8.474;2022-12-11T05:57:41;62.37;;;26.07;;
12906;SDS011;6521;50.498;8.474;2022-12-11T06:00:12;52.53;;;26.10;;
12906;SDS011;6521;50.498;8.474;2022-12-11T06:02:43;54.37;;;27.00;;
12906;SDS011;6521;50.498;8.474;2022-12-11T06:05:13;58.63;;;28.97;;
12906;SDS011;6521;50.498;8.474;2022-12-11T06:07:44;55.73;;;25.70;;
12906;SDS011;6521;50.498;8.474;2022-12-11T06:10:15;54.77;;;27.53;;
12906;SDS011;6521;50.498;8.474;2022-12-11T06:12:46;54.67;;;25.90;;
12906;SDS011;6521;50.498;8.474;2022-12-11T06:15:16;62.37;;;28.03;;
12906;SDS011;6521;50.498;8.474;2022-12-11T06:17:47;65.60;;;26.70;;
12906;SDS011;6521;50.498;8.474;2022-12-11T06:20:18;61.10;;;27.10;;
12906;SDS011;6521;50.498;8.474;2022-12-11T06:22:49;55.47;;;27.07;;
12906;SDS011;6521;50.498;8.474;2022-12-11T06:25:20;57.27;;;27.07;;
12906;SDS011;6521;50.498;8.474;2022-12-11T06:27:51;60.37;;;28.40;;
12906;SDS011;6521;50.498;8.474;2022-12-11T06:30:21;58.07;;;26.87;;
12906;SDS011;6521;50.498;8.474;2022-12-11T06:32:53;54.43;;;26.27;;
12906;SDS011;6521;50.498;8.474;2022-12-11T06:35:24;59.07;;;27.03;;
12906;SDS011;6521;50.498;8.474;2022-12-11T06:37:55;52.70;;;25.67;;
12906;SDS011;6521;50.498;8.474;2022-12-11T06:40:26;52.17;;;24.03;;
12906;SDS011;6521;50.498;8.474;2022-12-11T06:42:57;46.13;;;24.00;;
12906;SDS011;6521;50.498;8.474;2022-12-11T06:45:27;49.83;;;23.10;;
12906;SDS011;6521;50.498;8.474;2022-12-11T06:47:59;45.10;;;23.43;;
12906;SDS011;6521;50.498;8.474;2022-12-11T06:50:30;44.67;;;22.53;;
12906;SDS011;6521;50.498;8.474;2022-12-11T06:53:01;53.70;;;24.37;;
12906;SDS011;6521;50.498;8.474;2022-12-11T06:55:35;45.70;;;23.10;;
12906;SDS011;6521;50.498;8.474;2022-12-11T06:58:06;48.53;;;24.43;;
12906;SDS011;6521;50.498;8.474;2022-12-11T07:00:38;49.50;;;24.03;;
12906;SDS011;6521;50.498;8.474;2022-12-11T07:03:09;52.20;;;24.13;;
12906;SDS011;6521;50.498;8.474;2022-12-11T07:05:41;45.90;;;22.93;;
12906;SDS011;6521;50.498;8.474;2022-12-11T07:08:12;47.33;;;22.77;;
12906;SDS011;6521;50.498;8.474;2022-12-11T07:10:42;45.93;;;24.20;;
12906;SDS011;6521;50.498;8.474;2022-12-11T07:13:13;50.37;;;24.07;;
12906;SDS011;6521;50.498;8.474;2022-12-11T07:15:44;50.13;;;23.97;;
12906;SDS011;6521;50.498;8.474;2022-12-11T07:18:15;49.47;;;24.17;;
12906;SDS011;6521;50.498;8.474;2022-12-11T07:20:46;54.43;;;26.30;;
12906;SDS011;6521;50.498;8.474;2022-12-11T07:23:17;63.93;;;25.37;;
12906;SDS011;6521;50.498;8.474;2022-12-11T07:25:48;67.93;;;28.17;;
12906;SDS011;6521;50.498;8.474;2022-12-11T07:28:19;53.37;;;24.83;;
12906;SDS011;6521;50.498;8.474;2022-12-11T07:30:50;58.13;;;25.73;;
12906;SDS011;6521;50.498;8.474;2022-12-11T07:33:20;53.90;;;26.20;;
12906;SDS011;6521;50.498;8.474;2022-12-11T07:35:51;49.33;;;23.27;;
12906;SDS011;6521;50.498;8.474;2022-12-11T07:38:22;52.30;;;24.43;;
12906;SDS011;6521;50.498;8.474;2022-12-11T07:40:53;46.70;;;24.13;;
12906;SDS011;6521;50.498;8.474;2022-12-11T07:43:24;51.33;;;23.57;;
12906;SDS011;6521;50.498;8.474;2022-12-11T07:45:59;47.40;;;24.20;;
12906;SDS011;6521;50.498;8.474;2022-12-11T07:48:33;48.60;;;25.07;;
12906;SDS011;6521;50.498;8.474;2022-12-11T07:53:38;51.30;;;24.57;;
12906;SDS011;6521;50.498;8.474;2022-12-11T07:56:10;46.77;;;23.47;;
12906;SDS011;6521;50.498;8.474;2022-12-11T07:58:41;44.70;;;23.93;;
12906;SDS011;6521;50.498;8.474;2022-12-11T08:01:13;53.73;;;25.70;;
12906;SDS011;6521;50.498;8.474;2022-12-11T08:03:49;49.77;;;24.50;;
12906;SDS011;6521;50.498;8.474;2022-12-11T08:06:26;53.00;;;25.90;;
12906;SDS011;6521;50.498;8.474;2022-12-11T08:09:00;44.30;;;23.23;;
12906;SDS011;6521;50.498;8.474;2022-12-11T08:11:32;46.57;;;24.33;;
12906;SDS011;6521;50.498;8.474;2022-12-11T08:14:05;55.47;;;27.53;;
12906;SDS011;6521;50.498;8.474;2022-12-11T08:16:38;51.00;;;27.30;;
12906;SDS011;6521;50.498;8.474;2022-12-11T08:19:15;64.40;;;31.67;;
12906;SDS011;6521;50.498;8.474;2022-12-11T08:21:47;56.50;;;29.57;;
12906;SDS011;6521;50.498;8.474;2022-12-11T08:24:18;52.93;;;27.07;;
12906;SDS011;6521;50.498;8.474;2022-12-11T08:26:50;48.63;;;25.93;;
12906;SDS011;6521;50.498;8.474;2022-12-11T08:29:21;45.00;;;24.13;;
12906;SDS011;6521;50.498;8.474;2022-12-11T08:31:51;54.20;;;26.53;;
12906;SDS011;6521;50.498;8.474;2022-12-11T08:34:22;61.10;;;28.30;;
12906;SDS011;6521;50.498;8.474;2022-12-11T08:36:53;48.43;;;25.10;;
12906;SDS011;6521;50.498;8.474;2022-12-11T08:39:24;71.47;;;26.57;;
12906;SDS011;6521;50.498;8.474;2022-12-11T08:41:55;66.70;;;29.43;;
12906;SDS011;6521;50.498;8.474;2022-12-11T08:44:26;104.03;;;36.27;;
12906;SDS011;6521;50.498;8.474;2022-12-11T08:46:57;83.17;;;32.90;;
12906;SDS011;6521;50.498;8.474;2022-12-11T08:49:28;87.13;;;37.60;;
12906;SDS011;6521;50.498;8.474;2022-12-11T08:51:59;85.87;;;34.10;;
12906;SDS011;6521;50.498;8.474;2022-12-11T08:54:30;76.43;;;31.90;;
12906;SDS011;6521;50.498;8.474;2022-12-11T08:57:01;71.10;;;28.57;;
12906;SDS011;6521;50.498;8.474;2022-12-11T08:59:32;58.60;;;23.93;;
12906;SDS011;6521;50.498;8.474;2022-12-11T09:02:03;55.57;;;25.27;;
12906;SDS011;6521;50.498;8.474;2022-12-11T09:04:34;56.37;;;23.77;;
12906;SDS011;6521;50.498;8.474;2022-12-11T09:07:04;46.57;;;23.70;;
12906;SDS011;6521;50.498;8.474;2022-12-11T09:09:35;53.17;;;23.63;;
12906;SDS011;6521;50.498;8.474;2022-12-11T09:12:06;53.10;;;23.07;;
12906;SDS011;6521;50.498;8.474;2022-12-11T09:14:37;58.70;;;23.37;;
12906;SDS011;6521;50.498;8.474;2022-12-11T09:17:07;52.33;;;22.63;;
12906;SDS011;6521;50.498;8.474;2022-12-11T09:19:38;55.97;;;22.73;;
12906;SDS011;6521;50.498;8.474;2022-12-11T09:22:09;59.37;;;20.90;;
12906;SDS011;6521;50.498;8.474;2022-12-11T09:24:40;40.87;;;18.90;;
12906;SDS011;6521;50.498;8.474;2022-12-11T09:27:11;33.63;;;17.53;;
12906;SDS011;6521;50.498;8.474;2022-12-11T09:29:43;63.47;;;20.70;;
12906;SDS011;6521;50.498;8.474;2022-12-11T09:32:13;54.63;;;21.73;;
12906;SDS011;6521;50.498;8.474;2022-12-11T09:34:44;49.83;;;19.80;;
12906;SDS011;6521;50.498;8.474;2022-12-11T09:37:15;44.20;;;19.67;;
12906;SDS011;6521;50.498;8.474;2022-12-11T09:39:46;48.80;;;20.40;;
12906;SDS011;6521;50.498;8.474;2022-12-11T09:42:18;39.47;;;19.77;;
12906;SDS011;6521;50.498;8.474;2022-12-11T09:44:56;31.87;;;17.10;;
12906;SDS011;6521;50.498;8.474;2022-12-11T09:47:32;53.47;;;19.77;;
12906;SDS011;6521;50.498;8.474;2022-12-11T09:50:11;46.07;;;21.50;;
12906;SDS011;6521;50.498;8.474;2022-12-11T10:01:05;38.33;;;20.30;;
12906;SDS011;6521;50.498;8.474;2022-12-11T10:03:48;53.27;;;21.07;;
12906;SDS011;6521;50.498;8.474;2022-12-11T10:06:59;39.67;;;19.67;;
12906;SDS011;6521;50.498;8.474;2022-12-11T10:17:33;35.57;;;18.20;;
12906;SDS011;6521;50.498;8.474;2022-12-11T10:23:05;35.20;;;19.20;;
12906;SDS011;6521;50.498;8.474;2022-12-11T10:25:39;45.77;;;21.43;;
12906;SDS011;6521;50.498;8.474;2022-12-11T10:28:15;40.60;;;21.47;;
12906;SDS011;6521;50.498;8.474;2022-12-11T10:30:56;43.77;;;21.17;;
12906;SDS011;6521;50.498;8.474;2022-12-11T10:33:37;51.10;;;20.77;;
12906;SDS011;6521;50.498;8.474;2022-12-11T10:36:25;47.50;;;17.90;;
12906;SDS011;6521;50.498;8.474;2022-12-11T10:39:00;43.97;;;16.33;;
12906;SDS011;6521;50.498;8.474;2022-12-11T10:44:15;33.60;;;15.97;;
12906;SDS011;6521;50.498;8.474;2022-12-11T10:49:42;26.43;;;14.17;;
12906;SDS011;6521;50.498;8.474;2022-12-11T10:52:28;46.13;;;17.27;;
12906;SDS011;6521;50.498;8.474;2022-12-11T10:55:14;28.80;;;15.47;;
12906;SDS011;6521;50.498;8.474;2022-12-11T10:58:05;23.77;;;13.23;;
12906;SDS011;6521;50.498;8.474;2022-12-11T11:00:37;27.97;;;13.47;;
12906;SDS011;6521;50.498;8.474;2022-12-11T11:03:19;30.50;;;14.73;;
12906;SDS011;6521;50.498;8.474;2022-12-11T11:06:06;28.20;;;13.73;;
12906;SDS011;6521;50.498;8.474;2022-12-11T11:08:50;35.87;;;14.33;;
12906;SDS011;6521;50.498;8.474;2022-12-11T11:14:16;24.17;;;14.00;;
12906;SDS011;6521;50.498;8.474;2022-12-11T11:16:49;31.33;;;14.40;;
12906;SDS011;6521;50.498;8.474;2022-12-11T11:22:06;31.33;;;14.70;;
12906;SDS011;6521;50.498;8.474;2022-12-11T11:24:46;31.53;;;13.40;;
12906;SDS011;6521;50.498;8.474;2022-12-11T11:27:29;36.60;;;13.43;;
12906;SDS011;6521;50.498;8.474;2022-12-11T11:30:05;33.87;;;12.80;;
12906;SDS011;6521;50.498;8.474;2022-12-11T11:32:58;33.60;;;13.53;;
12906;SDS011;6521;50.498;8.474;2022-12-11T11:35:34;25.73;;;12.53;;
12906;SDS011;6521;50.498;8.474;2022-12-11T11:51:51;25.23;;;12.57;;
12906;SDS011;6521;50.498;8.474;2022-12-11T11:54:30;24.83;;;12.70;;
12906;SDS011;6521;50.498;8.474;2022-12-11T11:57:11;25.27;;;11.87;;
12906;SDS011;6521;50.498;8.474;2022-12-11T11:59:46;30.30;;;12.40;;
12906;SDS011;6521;50.498;8.474;2022-12-11T12:02:27;23.70;;;12.67;;
12906;SDS011;6521;50.498;8.474;2022-12-11T12:04:59;16.70;;;11.03;;
12906;SDS011;6521;50.498;8.474;2022-12-11T12:10:33;23.30;;;11.30;;
12906;SDS011;6521;50.498;8.474;2022-12-11T12:16:07;27.00;;;11.60;;
12906;SDS011;6521;50.498;8.474;2022-12-11T12:18:57;25.67;;;11.43;;
12906;SDS011;6521;50.498;8.474;2022-12-11T12:21:33;24.20;;;10.97;;
12906;SDS011;6521;50.498;8.474;2022-12-11T12:36:05;29.67;;;12.47;;
12906;SDS011;6521;50.498;8.474;2022-12-11T12:38:53;27.23;;;12.60;;
12906;SDS011;6521;50.498;8.474;2022-12-11T12:41:36;33.13;;;12.50;;
12906;SDS011;6521;50.498;8.474;2022-12-11T12:44:15;37.33;;;16.07;;
12906;SDS011;6521;50.498;8.474;2022-12-11T12:46:58;27.07;;;13.43;;
12906;SDS011;6521;50.498;8.474;2022-12-11T12:49:42;26.23;;;13.37;;
12906;SDS011;6521;50.498;8.474;2022-12-11T12:52:17;25.30;;;13.43;;
12906;SDS011;6521;50.498;8.474;2022-12-11T12:54:55;19.70;;;11.70;;
12906;SDS011;6521;50.498;8.474;2022-12-11T13:00:27;22.60;;;11.57;;
12906;SDS011;6521;50.498;8.474;2022-12-11T13:03:19;40.27;;;14.30;;
12906;SDS011;6521;50.498;8.474;2022-12-11T13:05:57;23.83;;;11.57;;
12906;SDS011;6521;50.498;8.474;2022-12-11T13:08:45;23.30;;;12.70;;
12906;SDS011;6521;50.498;8.474;2022-12-11T13:11:18;22.43;;;12.33;;
12906;SDS011;6521;50.498;8.474;2022-12-11T13:14:02;18.83;;;11.27;;
12906;SDS011;6521;50.498;8.474;2022-12-11T13:16:39;18.57;;;10.60;;
12906;SDS011;6521;50.498;8.474;2022-12-11T13:27:23;24.33;;;10.43;;
12906;SDS011;6521;50.498;8.474;2022-12-11T13:30:19;14.53;;;9.33;;
12906;SDS011;6521;50.498;8.474;2022-12-11T13:35:46;26.50;;;10.53;;
12906;SDS011;6521;50.498;8.474;2022-12-11T13:38:18;22.00;;;9.50;;
12906;SDS011;6521;50.498;8.474;2022-12-11T13:40:52;16.90;;;9.13;;
12906;SDS011;6521;50.498;8.474;2022-12-11T13:43:25;23.17;;;10.33;;
12906;SDS011;6521;50.498;8.474;2022-12-11T13:46:02;19.87;;;9.67;;
12906;SDS011;6521;50.498;8.474;2022-12-11T13:48:47;23.17;;;9.57;;
12906;SDS011;6521;50.498;8.474;2022-12-11T13:51:24;20.27;;;9.67;;
12906;SDS011;6521;50.498;8.474;2022-12-11T13:54:03;21.30;;;9.73;;
12906;SDS011;6521;50.498;8.474;2022-12-11T13:56:55;17.93;;;9.07;;
12906;SDS011;6521;50.498;8.474;2022-12-11T13:59:33;16.13;;;10.33;;
12906;SDS011;6521;50.498;8.474;2022-12-11T14:05:02;24.23;;;8.97;;
12906;SDS011;6521;50.498;8.474;2022-12-11T14:07:40;17.53;;;9.00;;
12906;SDS011;6521;50.498;8.474;2022-12-11T14:10:26;16.00;;;8.83;;
12906;SDS011;6521;50.498;8.474;2022-12-11T14:13:00;18.13;;;10.53;;
12906;SDS011;6521;50.498;8.474;2022-12-11T14:15:34;19.00;;;8.60;;
12906;SDS011;6521;50.498;8.474;2022-12-11T14:18:05;18.83;;;10.33;;
12906;SDS011;6521;50.498;8.474;2022-12-11T14:20:36;17.50;;;10.40;;
12906;SDS011;6521;50.498;8.474;2022-12-11T14:23:18;18.50;;;10.27;;
12906;SDS011;6521;50.498;8.474;2022-12-11T14:28:35;24.90;;;13.03;;
12906;SDS011;6521;50.498;8.474;2022-12-11T14:31:08;26.77;;;13.93;;
12906;SDS011;6521;50.498;8.474;2022-12-11T14:33:50;21.37;;;13.47;;
12906;SDS011;6521;50.498;8.474;2022-12-11T14:36:25;23.73;;;11.87;;
12906;SDS011;6521;50.498;8.474;2022-12-11T14:39:02;26.20;;;10.73;;
12906;SDS011;6521;50.498;8.474;2022-12-11T14:41:42;22.77;;;10.40;;
12906;SDS011;6521;50.498;8.474;2022-12-11T14:44:18;16.97;;;9.43;;
12906;SDS011;6521;50.498;8.474;2022-12-11T14:47:14;15.60;;;9.03;;
12906;SDS011;6521;50.498;8.474;2022-12-11T14:52:47;17.30;;;9.27;;
12906;SDS011;6521;50.498;8.474;2022-12-11T14:55:26;13.83;;;8.57;;
12906;SDS011;6521;50.498;8.474;2022-12-11T14:58:13;20.37;;;8.47;;
12906;SDS011;6521;50.498;8.474;2022-12-11T15:01:06;17.87;;;8.87;;
12906;SDS011;6521;50.498;8.474;2022-12-11T15:04:00;22.80;;;9.30;;
12906;SDS011;6521;50.498;8.474;2022-12-11T15:06:34;14.63;;;8.37;;
12906;SDS011;6521;50.498;8.474;2022-12-11T15:09:20;19.00;;;9.00;;
12906;SDS011;6521;50.498;8.474;2022-12-11T15:11:54;18.53;;;9.17;;
12906;SDS011;6521;50.498;8.474;2022-12-11T15:14:27;28.33;;;9.17;;
12906;SDS011;6521;50.498;8.474;2022-12-11T15:16:59;17.87;;;9.47;;
12906;SDS011;6521;50.498;8.474;2022-12-11T15:19:31;14.50;;;8.63;;
12906;SDS011;6521;50.498;8.474;2022-12-11T15:22:04;14.40;;;8.77;;
12906;SDS011;6521;50.498;8.474;2022-12-11T15:24:39;13.13;;;8.00;;
12906;SDS011;6521;50.498;8.474;2022-12-11T15:27:34;18.60;;;9.00;;
12906;SDS011;6521;50.498;8.474;2022-12-11T15:32:49;16.20;;;9.87;;
12906;SDS011;6521;50.498;8.474;2022-12-11T15:35:21;12.10;;;8.17;;
12906;SDS011;6521;50.498;8.474;2022-12-11T15:37:54;12.23;;;8.17;;
12906;SDS011;6521;50.498;8.474;2022-12-11T15:40:26;13.50;;;8.67;;
12906;SDS011;6521;50.498;8.474;2022-12-11T15:42:58;17.87;;;8.43;;
12906;SDS011;6521;50.498;8.474;2022-12-11T15:45:31;12.30;;;7.23;;
12906;SDS011;6521;50.498;8.474;2022-12-11T15:48:02;16.57;;;10.03;;
12906;SDS011;6521;50.498;8.474;2022-12-11T15:50:33;17.17;;;10.30;;
12906;SDS011;6521;50.498;8.474;2022-12-11T15:53:03;33.20;;;13.20;;
12906;SDS011;6521;50.498;8.474;2022-12-11T15:55:34;19.93;;;11.80;;
12906;SDS011;6521;50.498;8.474;2022-12-11T15:58:07;15.73;;;9.80;;
12906;SDS011;6521;50.498;8.474;2022-12-11T16:00:44;13.80;;;8.90;;
12906;SDS011;6521;50.498;8.474;2022-12-11T16:03:17;19.13;;;10.70;;
12906;SDS011;6521;50.498;8.474;2022-12-11T16:05:49;22.47;;;15.40;;
12906;SDS011;6521;50.498;8.474;2022-12-11T16:08:21;19.20;;;13.63;;
12906;SDS011;6521;50.498;8.474;2022-12-11T16:10:54;17.40;;;10.43;;
12906;SDS011;6521;50.498;8.474;2022-12-11T16:13:25;14.27;;;8.93;;
12906;SDS011;6521;50.498;8.474;2022-12-11T16:15:56;17.60;;;9.37;;
12906;SDS011;6521;50.498;8.474;2022-12-11T16:18:27;17.20;;;10.77;;
12906;SDS011;6521;50.498;8.474;2022-12-11T16:21:02;37.40;;;11.17;;
12906;SDS011;6521;50.498;8.474;2022-12-11T16:23:35;17.90;;;10.90;;
12906;SDS011;6521;50.498;8.474;2022-12-11T16:26:06;19.53;;;11.23;;
12906;SDS011;6521;50.498;8.474;2022-12-11T16:28:39;21.83;;;11.30;;
12906;SDS011;6521;50.498;8.474;2022-12-11T16:31:10;16.97;;;10.13;;
12906;SDS011;6521;50.498;8.474;2022-12-11T16:33:42;18.03;;;9.53;;
12906;SDS011;6521;50.498;8.474;2022-12-11T16:36:14;17.10;;;10.43;;
12906;SDS011;6521;50.498;8.474;2022-12-11T16:38:46;18.70;;;10.43;;
12906;SDS011;6521;50.498;8.474;2022-12-11T16:41:18;22.53;;;11.03;;
12906;SDS011;6521;50.498;8.474;2022-12-11T16:43:49;18.17;;;10.27;;
12906;SDS011;6521;50.498;8.474;2022-12-11T16:46:21;30.63;;;12.17;;
12906;SDS011;6521;50.498;8.474;2022-12-11T16:48:53;20.60;;;10.83;;
12906;SDS011;6521;50.498;8.474;2022-12-11T16:51:24;16.87;;;9.97;;
12906;SDS011;6521;50.498;8.474;2022-12-11T16:53:55;17.30;;;9.50;;
12906;SDS011;6521;50.498;8.474;2022-12-11T16:56:25;21.47;;;10.43;;
12906;SDS011;6521;50.498;8.474;2022-12-11T16:58:56;16.23;;;9.23;;
12906;SDS011;6521;50.498;8.474;2022-12-11T17:01:27;17.20;;;10.37;;
12906;SDS011;6521;50.498;8.474;2022-12-11T17:03:58;18.17;;;10.90;;
12906;SDS011;6521;50.498;8.474;2022-12-11T17:06:28;14.83;;;9.57;;